Time;durP1;ratioP1;P1;durP2;ratioP2;P2;SDS_P1;SDS_P2;PMS_P1;PMS_P2;Temp;Humidity;BMP_temperature;BMP_pressure;BME280_temperature;BME280_humidity;BME280_pressure;Samples;Min_cycle;Max_cycle;Signal;HPM_P1;HPM_P2
2022/12/08 00:02:00;;;;;;;10.95;6.50;;;;;;;9.84;70.94;100156.31;5000678;28;20489;-78
2022/12/08 00:09:20;;;;;;;11.52;7.13;;;;;;;9.83;70.96;100162.59;4996920;28;20069;-80
2022/12/08 00:10:03;;;;;;;11.25;6.45;;;;;;;9.86;70.71;100154.44;4998353;28;20042;-78
2022/12/08 00:12:52;;;;;;;10.88;6.70;;;;;;;9.86;70.64;100149.13;4998184;28;20043;-79
2022/12/08 00:15:20;;;;;;;11.43;6.55;;;;;;;9.86;70.66;100157.97;4997955;28;20097;-79
2022/12/08 00:17:49;;;;;;;10.82;6.43;;;;;;;9.85;70.64;100164.25;4997965;28;20046;-79
2022/12/08 00:20:17;;;;;;;9.63;6.35;;;;;;;9.85;70.74;100152.75;4997529;28;20073;-80
2022/12/08 00:22:46;;;;;;;11.35;7.28;;;;;;;9.84;70.63;100148.31;4997927;28;20050;-81
2022/12/08 00:25:14;;;;;;;11.05;6.90;;;;;;;9.84;70.53;100159.84;4998191;28;20054;-80
2022/12/08 00:27:43;;;;;;;11.52;6.95;;;;;;;9.83;70.52;100160.78;4997957;28;20456;-80
2022/12/08 00:30:11;;;;;;;10.95;6.68;;;;;;;9.82;70.63;100155.56;4997560;28;20409;-80
2022/12/08 00:32:39;;;;;;;10.88;6.30;;;;;;;9.81;70.52;100159.16;4997476;28;20047;-80
2022/12/08 00:35:09;;;;;;;9.80;6.30;;;;;;;9.81;70.57;100159.16;4998099;28;20046;-80
2022/12/08 00:37:37;;;;;;;10.75;7.10;;;;;;;9.81;70.53;100169.81;4997374;28;20042;-79
2022/12/08 00:40:06;;;;;;;11.30;7.13;;;;;;;9.79;70.47;100166.41;4997959;28;20410;-80
2022/12/08 00:42:35;;;;;;;11.15;7.18;;;;;;;9.75;70.60;100161.25;4997601;28;20046;-80
2022/12/08 00:45:03;;;;;;;11.68;7.03;;;;;;;9.79;70.43;100171.72;4997193;28;20493;-79
2022/12/08 00:47:31;;;;;;;10.27;7.00;;;;;;;9.77;70.44;100168.31;4997560;28;20105;-80
2022/12/08 00:50:00;;;;;;;11.55;6.82;;;;;;;9.74;70.52;100170.19;4997391;28;20069;-80
2022/12/08 00:52:30;;;;;;;11.77;7.10;;;;;;;9.77;70.50;100171.81;4997555;28;20050;-81
2022/12/08 00:54:58;;;;;;;11.63;7.53;;;;;;;9.78;70.46;100180.66;4997427;28;20100;-80
2022/12/08 00:57:27;;;;;;;11.60;7.50;;;;;;;9.77;70.57;100170.97;4997294;28;20081;-79
2022/12/08 00:59:56;;;;;;;15.20;7.70;;;;;;;9.74;70.39;100159.53;4996948;28;20105;-80
2022/12/08 01:02:24;;;;;;;13.70;7.38;;;;;;;9.75;70.41;100171.91;4979746;28;20054;-79
2022/12/08 01:04:52;;;;;;;10.88;7.15;;;;;;;9.74;70.37;100164.00;4979771;28;20050;-80
2022/12/08 01:07:20;;;;;;;12.27;8.00;;;;;;;9.73;70.44;100165.78;4980469;28;20101;-80
2022/12/08 01:09:50;;;;;;;10.38;7.18;;;;;;;9.73;70.55;100170.28;4997691;28;20073;-80
2022/12/08 01:12:18;;;;;;;12.77;8.00;;;;;;;9.73;70.36;100173.78;4997325;28;20138;-79
2022/12/08 01:14:46;;;;;;;11.82;7.38;;;;;;;9.71;70.39;100169.50;4996249;28;20046;-79
2022/12/08 01:17:14;;;;;;;11.38;7.72;;;;;;;9.71;70.38;100175.69;4996654;28;20062;-80
2022/12/08 01:19:43;;;;;;;11.20;7.03;;;;;;;9.72;70.37;100164.09;4997122;28;20043;-79
2022/12/08 01:22:11;;;;;;;13.68;7.93;;;;;;;9.68;70.13;100165.22;4996886;28;20129;-79
2022/12/08 01:24:39;;;;;;;12.55;7.90;;;;;;;9.69;70.44;100166.94;4996982;28;20073;-80
2022/12/08 01:27:08;;;;;;;12.18;7.68;;;;;;;9.70;70.18;100171.31;4996783;28;20133;-79
2022/12/08 01:29:37;;;;;;;14.63;8.65;;;;;;;9.66;70.32;100172.44;4996854;28;20555;-80
2022/12/08 01:32:05;;;;;;;13.48;7.78;;;;;;;9.64;70.45;100169.00;4979416;28;20092;-80
2022/12/08 01:34:33;;;;;;;12.18;7.95;;;;;;;9.63;70.43;100158.44;4996687;28;20077;-79
2022/12/08 01:37:01;;;;;;;12.68;7.90;;;;;;;9.62;70.46;100173.56;4996695;28;20069;-79
2022/12/08 01:39:29;;;;;;;15.05;8.38;;;;;;;9.63;70.34;100161.94;4978945;28;20059;-81
2022/12/08 01:41:58;;;;;;;12.50;8.20;;;;;;;9.62;70.35;100164.72;4996541;28;20050;-78
2022/12/08 01:44:57;;;;;;;12.45;8.15;;;;;;;9.62;70.59;100164.72;4996706;28;20545;-80
2022/12/08 01:47:31;;;;;;;14.45;8.52;;;;;;;9.61;70.33;100166.50;4996837;28;20046;-80
2022/12/08 01:50:00;;;;;;;12.68;8.20;;;;;;;9.60;70.25;100156.81;4997065;28;20042;-79
2022/12/08 01:52:35;;;;;;;12.38;8.20;;;;;;;9.61;70.14;100165.66;4979354;28;20054;-78
2022/12/08 01:55:08;;;;;;;14.75;8.52;;;;;;;9.60;70.21;100156.81;4996860;28;20073;-79
2022/12/08 01:57:42;;;;;;;13.52;8.60;;;;;;;9.57;70.22;100146.34;4997986;28;20090;-78
2022/12/08 02:00:14;;;;;;;12.93;8.48;;;;;;;9.59;69.95;100160.44;4999125;28;20497;-80
2022/12/08 02:02:53;;;;;;;12.57;8.15;;;;;;;9.58;70.17;100153.38;4996666;28;20077;-80
2022/12/08 02:05:23;;;;;;;14.15;8.57;;;;;;;9.57;70.23;100156.13;4996217;28;20089;-81
2022/12/08 02:07:52;;;;;;;12.90;8.65;;;;;;;9.57;70.13;100145.50;4996235;28;20050;-79
2022/12/08 02:10:22;;;;;;;14.13;8.93;;;;;;;9.56;70.16;100141.97;4996103;28;20050;-80
2022/12/08 02:12:54;;;;;;;12.82;8.43;;;;;;;9.54;70.16;100141.19;4979075;28;20082;-80
2022/12/08 02:15:33;;;;;;;14.02;9.02;;;;;;;9.55;70.01;100139.38;4996027;28;20046;-80
2022/12/08 02:18:15;;;;;;;14.25;8.32;;;;;;;9.54;70.03;100132.34;4995513;28;20493;-80
2022/12/08 02:20:53;;;;;;;12.48;8.10;;;;;;;9.53;70.09;100139.47;4996149;28;20046;-79
2022/12/08 02:23:31;;;;;;;13.82;8.50;;;;;;;9.53;69.91;100138.59;4996219;28;20057;-79
2022/12/08 02:26:32;;;;;;;15.30;8.77;;;;;;;9.52;70.05;100134.22;4995270;28;20531;-80
2022/12/08 02:29:18;;;;;;;14.82;9.25;;;;;;;9.52;70.07;100124.44;4995533;28;20046;-79
2022/12/08 02:32:08;;;;;;;13.65;9.18;;;;;;;9.50;70.04;100123.69;4995351;28;20528;-79
2022/12/08 02:34:44;;;;;;;13.52;8.25;;;;;;;9.49;69.72;100137.94;4995877;28;20049;-79
2022/12/08 02:37:18;;;;;;;16.13;9.27;;;;;;;9.47;69.92;100129.19;4995717;28;20047;-79
2022/12/08 02:39:52;;;;;;;13.40;8.80;;;;;;;9.49;69.95;100129.94;4996071;28;20086;-79
2022/12/08 02:42:27;;;;;;;13.82;8.70;;;;;;;9.46;69.94;100132.78;4995422;28;20481;-79
2022/12/08 02:45:01;;;;;;;14.95;8.77;;;;;;;9.46;69.79;100138.97;4995632;28;20478;-80
2022/12/08 02:47:32;;;;;;;15.40;9.38;;;;;;;9.48;69.86;100125.56;4995418;28;20053;-79
2022/12/08 02:50:01;;;;;;;13.68;9.55;;;;;;;9.48;69.81;100130.91;4995273;28;20042;-80
2022/12/08 02:52:40;;;;;;;15.35;9.13;;;;;;;9.46;69.63;100123.00;4995463;28;20058;-79
2022/12/08 02:55:15;;;;;;;15.60;9.20;;;;;;;9.46;69.80;100124.81;4995140;28;20445;-79
2022/12/08 02:57:56;;;;;;;15.90;9.75;;;;;;;9.44;69.80;100124.88;4994963;28;20047;-80
2022/12/08 03:00:27;;;;;;;17.20;9.70;;;;;;;9.41;69.58;100116.22;4995421;28;20054;-79
2022/12/08 03:03:07;;;;;;;15.55;9.80;;;;;;;9.43;69.96;100103.66;4995140;28;20047;-78
2022/12/08 03:05:57;;;;;;;14.73;8.98;;;;;;;9.43;69.81;100106.31;4995299;28;20401;-78
2022/12/08 03:08:35;;;;;;;16.33;9.63;;;;;;;9.42;69.72;100104.63;4977639;28;20062;-78
2022/12/08 03:11:11;;;;;;;14.38;9.13;;;;;;;9.40;69.56;100106.50;4995272;28;20046;-77
2022/12/08 03:13:43;;;;;;;13.48;9.38;;;;;;;9.40;69.75;100102.06;4994998;28;20405;-79
2022/12/08 03:16:15;;;;;;;15.32;9.35;;;;;;;9.41;69.74;100105.56;4995296;28;20053;-78
2022/12/08 03:18:48;;;;;;;15.15;9.18;;;;;;;9.39;69.66;100108.31;4994821;28;20050;-79
2022/12/08 03:21:20;;;;;;;15.73;9.45;;;;;;;9.39;69.67;100107.47;4994895;28;20096;-78
2022/12/08 03:23:52;;;;;;;14.90;9.40;;;;;;;9.37;69.87;100101.38;4995299;28;20050;-78
2022/12/08 03:26:31;;;;;;;14.82;9.68;;;;;;;9.38;69.73;100111.06;4994867;28;20053;-80
2022/12/08 03:28:59;;;;;;;16.02;9.50;;;;;;;9.38;69.60;100111.06;4994656;28;20097;-79
2022/12/08 03:31:33;;;;;;;16.50;9.98;;;;;;;9.32;69.69;100106.09;4995021;28;20046;-79
2022/12/08 03:34:03;;;;;;;14.90;9.15;;;;;;;9.34;69.66;100106.84;4994906;28;20093;-79
2022/12/08 03:36:32;;;;;;;15.07;9.40;;;;;;;9.36;69.68;100115.59;4994610;28;20065;-79
2022/12/08 03:39:01;;;;;;;14.85;9.50;;;;;;;9.34;69.62;100118.38;4993965;28;20125;-79
2022/12/08 03:41:29;;;;;;;13.95;9.20;;;;;;;9.35;69.61;100108.56;4977365;28;20146;-78
2022/12/08 03:43:59;;;;;;;15.50;9.43;;;;;;;9.35;69.63;100108.56;4976965;28;20129;-79
2022/12/08 03:46:30;;;;;;;16.60;10.15;;;;;;;9.35;69.42;100116.56;4994454;28;20045;-79
2022/12/08 03:48:59;;;;;;;15.35;10.13;;;;;;;9.32;69.59;100114.94;4977461;28;20456;-78
2022/12/08 03:51:28;;;;;;;15.38;10.25;;;;;;;9.31;69.57;100115.88;4994137;28;20046;-79
2022/12/08 03:53:57;;;;;;;16.73;10.05;;;;;;;9.32;69.55;100114.09;4994260;28;20047;-79
2022/12/08 03:56:28;;;;;;;15.20;9.43;;;;;;;9.32;69.49;100106.09;4994350;28;20386;-78
2022/12/08 03:58:56;;;;;;;16.17;9.40;;;;;;;9.31;69.59;100101.72;4994852;28;20051;-78
2022/12/08 04:01:24;;;;;;;14.95;9.80;;;;;;;9.29;69.61;100108.94;4994252;28;20043;-79
2022/12/08 04:03:55;;;;;;;16.30;10.43;;;;;;;9.29;69.43;100100.97;4994435;28;20057;-80
2022/12/08 04:06:23;;;;;;;14.88;9.65;;;;;;;9.30;69.46;100102.66;4994123;28;20074;-79
2022/12/08 04:08:52;;;;;;;15.77;10.02;;;;;;;9.29;69.60;100101.81;4994409;28;20109;-79
2022/12/08 04:11:21;;;;;;;14.63;8.85;;;;;;;9.29;69.68;100100.97;4994125;28;20057;-79
2022/12/08 04:13:50;;;;;;;15.68;9.88;;;;;;;9.28;69.44;100096.59;4994807;28;20050;-79
2022/12/08 04:16:20;;;;;;;14.48;9.75;;;;;;;9.28;69.51;100093.91;4993956;28;20065;-79
2022/12/08 04:18:49;;;;;;;14.05;9.50;;;;;;;9.28;69.55;100096.59;4976732;28;20053;-79
2022/12/08 04:21:17;;;;;;;14.10;9.27;;;;;;;9.27;69.47;100094.88;4994531;28;20046;-79
2022/12/08 04:23:46;;;;;;;17.10;10.18;;;;;;;9.26;69.61;100082.47;4994005;28;20049;-79
2022/12/08 04:26:15;;;;;;;14.65;9.27;;;;;;;9.27;69.62;100084.22;4993750;28;20042;-79
2022/12/08 04:28:44;;;;;;;16.20;10.00;;;;;;;9.24;69.60;100084.38;4993990;28;20050;-79
2022/12/08 04:31:13;;;;;;;15.98;9.98;;;;;;;9.27;69.57;100089.53;4993708;28;20477;-79
2022/12/08 04:33:41;;;;;;;16.95;10.15;;;;;;;9.28;69.45;100083.28;4993934;28;20137;-79
2022/12/08 04:36:09;;;;;;;14.43;9.65;;;;;;;9.28;69.49;100077.94;4994245;28;20074;-79
2022/12/08 04:38:37;;;;;;;14.98;9.95;;;;;;;9.27;69.38;100078.91;4994030;28;20053;-79
2022/12/08 04:41:06;;;;;;;14.23;9.40;;;;;;;9.26;69.38;100082.47;4993936;28;20133;-80
2022/12/08 04:43:35;;;;;;;15.98;9.82;;;;;;;9.27;69.41;100087.75;4976357;28;20057;-79
2022/12/08 04:46:07;;;;;;;14.48;9.43;;;;;;;9.24;69.51;100085.22;4993854;28;20047;-79
2022/12/08 04:48:38;;;;;;;17.20;9.88;;;;;;;9.26;69.26;100082.47;4994436;28;20078;-79
2022/12/08 04:51:07;;;;;;;15.63;10.05;;;;;;;9.26;69.29;100077.16;4996639;28;20100;-79
2022/12/08 04:53:35;;;;;;;15.07;10.05;;;;;;;9.26;69.26;100082.47;4997365;28;20427;-79
2022/12/08 04:56:03;;;;;;;14.27;9.80;;;;;;;9.26;69.20;100082.47;4979904;28;20043;-79
2022/12/08 04:58:32;;;;;;;16.45;10.35;;;;;;;9.26;69.31;100082.47;4997492;28;20516;-79
2022/12/08 05:01:00;;;;;;;15.80;9.90;;;;;;;9.26;69.33;100093.13;4997330;28;20050;-79
2022/12/08 05:03:29;;;;;;;14.93;9.90;;;;;;;9.22;69.45;100094.25;4995902;28;20085;-79
2022/12/08 05:05:59;;;;;;;16.05;10.20;;;;;;;9.20;69.39;100082.84;4996903;28;20057;-80
2022/12/08 05:08:28;;;;;;;13.77;9.57;;;;;;;9.18;69.52;100091.78;4997557;28;20046;-79
2022/12/08 05:11:01;;;;;;;15.63;10.07;;;;;;;9.14;69.59;100095.53;4997147;28;20429;-81
2022/12/08 05:13:30;;;;;;;14.88;10.23;;;;;;;9.14;69.45;100095.53;4997826;28;20058;-79
2022/12/08 05:16:03;;;;;;;15.05;9.77;;;;;;;9.14;69.58;100090.22;4996976;28;20046;-80
2022/12/08 05:18:33;;;;;;;19.00;10.52;;;;;;;9.12;69.45;100092.13;4997129;28;20096;-79
2022/12/08 05:21:04;;;;;;;16.77;10.10;;;;;;;9.14;69.50;100100.00;4979478;28;20047;-78
2022/12/08 05:23:33;;;;;;;15.30;9.75;;;;;;;9.14;69.61;100094.69;4997010;28;20133;-79
2022/12/08 05:26:01;;;;;;;15.05;9.70;;;;;;;9.13;69.52;100099.16;4996785;28;20050;-79
2022/12/08 05:28:29;;;;;;;17.85;10.38;;;;;;;9.13;69.51;100099.16;4996847;28;20050;-78
2022/12/08 05:31:14;;;;;;;15.02;9.43;;;;;;;9.14;69.52;100094.69;4996419;28;20046;-78
2022/12/08 05:33:45;;;;;;;16.55;9.90;;;;;;;9.13;69.49;100093.81;4996557;28;20057;-78
2022/12/08 05:36:15;;;;;;;18.35;10.63;;;;;;;9.12;69.52;100089.47;4996876;28;20057;-78
2022/12/08 05:38:43;;;;;;;16.60;9.85;;;;;;;9.11;69.48;100085.09;4997077;28;20105;-78
2022/12/08 05:41:15;;;;;;;17.45;10.15;;;;;;;9.11;69.53;100079.75;4978711;28;20121;-78
2022/12/08 05:43:43;;;;;;;16.90;10.45;;;;;;;9.11;69.19;100073.59;4996673;28;20042;-79
2022/12/08 05:46:11;;;;;;;15.52;9.10;;;;;;;9.12;69.47;100069.97;4996171;28;20497;-78
2022/12/08 05:48:40;;;;;;;14.27;9.43;;;;;;;9.10;69.57;100062.09;4979165;28;20493;-78
2022/12/08 05:51:18;;;;;;;14.93;9.73;;;;;;;9.10;69.57;100056.75;4996334;28;20105;-78
2022/12/08 05:53:47;;;;;;;15.85;10.52;;;;;;;9.09;69.49;100065.69;4996447;28;20052;-78
2022/12/08 05:56:15;;;;;;;14.10;9.65;;;;;;;9.09;69.59;100071.00;4996282;28;20378;-78
2022/12/08 05:58:44;;;;;;;16.60;10.88;;;;;;;9.06;69.49;100071.16;4995849;28;20046;-77
2022/12/08 06:01:22;;;;;;;16.52;10.45;;;;;;;9.09;69.56;100086.13;4995610;28;20415;-78
2022/12/08 06:03:50;;;;;;;16.88;9.80;;;;;;;9.08;69.44;100079.09;4996465;28;20057;-77
2022/12/08 06:06:20;;;;;;;15.82;10.00;;;;;;;9.10;69.50;100088.69;4995941;28;20122;-79
2022/12/08 06:08:49;;;;;;;17.60;10.70;;;;;;;9.09;69.57;100086.97;4996280;28;20514;-78
2022/12/08 06:11:22;;;;;;;16.63;10.10;;;;;;;9.09;69.49;100086.13;4996461;28;20046;-77
2022/12/08 06:13:50;;;;;;;16.50;9.77;;;;;;;9.08;69.50;100087.94;4995849;28;20511;-77
2022/12/08 06:16:19;;;;;;;16.38;10.75;;;;;;;9.06;69.47;100089.78;5014470;28;20420;-80
2022/12/08 06:18:47;;;;;;;16.27;9.80;;;;;;;9.06;69.59;100097.78;5015476;28;20057;-77
2022/12/08 06:21:17;;;;;;;16.80;11.00;;;;;;;9.04;69.61;100097.00;5015146;28;20369;-78
2022/12/08 06:23:50;;;;;;;14.38;9.45;;;;;;;9.04;69.69;100099.66;5015159;28;20381;-78
2022/12/08 06:26:19;;;;;;;16.40;9.80;;;;;;;9.05;69.56;100100.53;4998249;28;20049;-80
2022/12/08 06:28:48;;;;;;;14.55;9.80;;;;;;;9.06;69.61;100097.78;5014682;28;20049;-79
2022/12/08 06:31:18;;;;;;;14.90;10.02;;;;;;;9.06;69.42;100097.78;5014565;28;20480;-80
2022/12/08 06:33:47;;;;;;;17.83;10.98;;;;;;;9.06;69.63;100103.09;4997463;28;20385;-80
2022/12/08 06:36:16;;;;;;;15.65;9.43;;;;;;;9.06;69.38;100103.09;5014774;28;20452;-79
2022/12/08 06:38:45;;;;;;;15.93;9.68;;;;;;;9.06;69.42;100103.09;5014451;28;20057;-78
2022/12/08 06:41:14;;;;;;;15.13;9.73;;;;;;;9.07;69.33;100104.84;5015073;28;20054;-78
2022/12/08 06:43:43;;;;;;;15.82;10.10;;;;;;;9.07;69.31;100096.84;5014527;28;20057;-79
2022/12/08 06:46:14;;;;;;;16.75;10.15;;;;;;;9.07;69.38;100096.84;5014605;28;20085;-78
2022/12/08 06:48:42;;;;;;;15.00;9.82;;;;;;;9.07;69.33;100104.84;5014190;28;20066;-77
2022/12/08 06:51:12;;;;;;;16.25;10.00;;;;;;;9.07;69.29;100094.19;5014246;28;20081;-78
2022/12/08 06:53:41;;;;;;;14.77;9.35;;;;;;;9.09;69.37;100102.09;5014588;28;20065;-79
2022/12/08 06:56:10;;;;;;;15.18;9.93;;;;;;;9.08;69.30;100106.56;5014401;28;20041;-77
2022/12/08 06:58:40;;;;;;;15.65;9.95;;;;;;;9.08;69.34;100103.03;5005208;28;20046;-77
2022/12/08 07:01:10;;;;;;;16.48;10.35;;;;;;;9.07;69.15;100104.84;4994825;28;20069;-78
2022/12/08 07:03:39;;;;;;;16.30;9.68;;;;;;;9.08;69.29;100111.88;4977235;28;20054;-78
2022/12/08 07:06:07;;;;;;;14.60;9.45;;;;;;;9.08;69.31;100117.19;4995781;28;20129;-78
2022/12/08 07:08:36;;;;;;;16.25;10.18;;;;;;;9.01;69.18;100104.31;4995064;28;20462;-79
2022/12/08 07:11:08;;;;;;;17.17;9.80;;;;;;;9.07;69.31;100110.16;4994422;28;20050;-79
2022/12/08 07:13:36;;;;;;;14.90;9.77;;;;;;;9.07;69.39;100110.16;4992753;28;20057;-79
2022/12/08 07:16:08;;;;;;;16.35;10.50;;;;;;;9.06;69.00;100105.75;5009177;28;20436;-79
2022/12/08 07:18:36;;;;;;;16.02;10.40;;;;;;;9.07;69.13;100102.19;5014072;28;20088;-78
2022/12/08 07:21:06;;;;;;;16.38;11.02;;;;;;;9.01;69.34;100088.34;5014187;28;20098;-76
2022/12/08 07:23:35;;;;;;;16.95;10.95;;;;;;;9.07;69.25;100099.53;5014021;28;20120;-77
2022/12/08 07:26:06;;;;;;;15.15;10.45;;;;;;;9.09;69.30;100104.75;5014135;28;20054;-77
2022/12/08 07:28:37;;;;;;;17.23;10.52;;;;;;;9.08;69.13;100101.22;5013997;28;20049;-80
2022/12/08 07:31:09;;;;;;;16.75;10.00;;;;;;;9.08;69.24;100101.22;5013922;28;20073;-78
2022/12/08 07:33:37;;;;;;;18.17;10.63;;;;;;;9.09;69.10;100100.28;4996856;28;20056;-79
2022/12/08 07:36:06;;;;;;;16.60;10.65;;;;;;;9.07;69.41;100104.84;5014184;28;20054;-80
2022/12/08 07:38:35;;;;;;;15.63;10.75;;;;;;;9.09;68.97;100096.78;5013626;28;20041;-80
2022/12/08 07:41:03;;;;;;;16.92;11.20;;;;;;;9.11;69.10;100093.06;5013742;28;20053;-80
2022/12/08 07:43:31;;;;;;;15.50;10.07;;;;;;;9.10;69.14;100094.00;5013665;28;20551;-78
2022/12/08 07:46:00;;;;;;;14.93;10.25;;;;;;;9.11;69.04;100098.38;4996181;28;20046;-78
2022/12/08 07:48:29;;;;;;;15.20;10.35;;;;;;;9.10;69.19;100099.34;5013800;28;20046;-78
2022/12/08 07:51:01;;;;;;;16.73;10.18;;;;;;;9.11;69.13;100105.50;5013485;28;20103;-83
2022/12/08 07:53:29;;;;;;;16.48;10.77;;;;;;;9.10;69.19;100104.66;5013871;28;20060;-79
2022/12/08 07:55:57;;;;;;;15.07;10.18;;;;;;;9.05;69.29;100093.41;5013102;28;20038;-79
2022/12/08 07:58:26;;;;;;;15.57;10.25;;;;;;;9.09;69.03;100086.97;5013396;28;20077;-80
2022/12/08 08:00:54;;;;;;;16.73;10.88;;;;;;;9.13;69.13;100095.63;5013408;28;20046;-80
2022/12/08 08:03:22;;;;;;;16.75;10.40;;;;;;;9.11;69.25;100093.06;5013938;28;20087;-78
2022/12/08 08:05:53;;;;;;;15.88;10.63;;;;;;;9.12;69.16;100091.25;5013162;28;20046;-79
2022/12/08 08:08:21;;;;;;;16.15;10.18;;;;;;;9.10;69.28;100099.34;5013628;28;20469;-80
2022/12/08 08:10:49;;;;;;;16.85;10.18;;;;;;;9.11;69.17;100101.06;5013802;28;20535;-79
2022/12/08 08:13:17;;;;;;;16.63;10.80;;;;;;;9.12;69.21;100097.44;5013579;28;20065;-81
2022/12/08 08:15:45;;;;;;;16.88;10.10;;;;;;;9.13;69.16;100099.16;5013582;28;20046;-79
2022/12/08 08:18:13;;;;;;;17.02;11.15;;;;;;;9.14;69.11;100098.19;5013492;28;20053;-79
2022/12/08 08:20:41;;;;;;;17.95;10.77;;;;;;;9.14;69.21;100100.88;5013653;28;20053;-79
2022/12/08 08:23:11;;;;;;;14.75;10.23;;;;;;;9.15;69.13;100099.06;5013369;28;20580;-79
2022/12/08 08:25:39;;;;;;;18.73;10.93;;;;;;;9.15;69.25;100097.25;5015899;28;20046;-80
2022/12/08 08:28:08;;;;;;;17.80;10.88;;;;;;;9.16;69.15;100092.78;5017303;28;20046;-77
2022/12/08 08:30:36;;;;;;;18.15;11.15;;;;;;;9.16;69.19;100090.97;5017454;28;20053;-77
2022/12/08 08:33:04;;;;;;;16.38;11.10;;;;;;;9.13;69.39;100087.66;5017140;28;20041;-79
2022/12/08 08:35:33;;;;;;;17.02;10.95;;;;;;;9.12;69.39;100086.78;5017144;28;20046;-79
2022/12/08 08:38:01;;;;;;;16.95;10.65;;;;;;;9.12;69.37;100097.44;5016990;28;20442;-77
2022/12/08 08:40:30;;;;;;;14.65;10.48;;;;;;;9.14;69.27;100094.69;4999383;28;20112;-76
2022/12/08 08:43:00;;;;;;;18.67;11.07;;;;;;;9.13;69.24;100096.50;5017461;28;20046;-76
2022/12/08 08:45:28;;;;;;;19.23;11.48;;;;;;;9.15;69.41;100093.75;5017187;28;20052;-77
2022/12/08 08:47:57;;;;;;;16.50;11.15;;;;;;;9.15;69.47;100091.06;5016476;28;20046;-78
2022/12/08 08:50:25;;;;;;;16.45;10.80;;;;;;;9.15;69.43;100093.75;5017238;28;20480;-78
2022/12/08 08:52:53;;;;;;;18.08;10.88;;;;;;;9.16;69.48;100093.66;5017197;28;20076;-78
2022/12/08 08:55:21;;;;;;;19.85;10.75;;;;;;;9.17;69.49;100090.06;4999303;28;20068;-78
2022/12/08 08:57:51;;;;;;;18.45;11.25;;;;;;;9.17;69.45;100094.53;5016426;28;20489;-78
2022/12/08 09:00:20;;;;;;;17.95;11.55;;;;;;;9.17;69.38;100092.72;4998920;28;20073;-78
2022/12/08 09:02:48;;;;;;;17.60;10.48;;;;;;;9.17;69.53;100090.06;5016776;28;20074;-79
2022/12/08 09:05:16;;;;;;;16.98;11.25;;;;;;;9.18;69.56;100078.47;5016641;28;20042;-79
2022/12/08 09:07:45;;;;;;;17.77;11.25;;;;;;;9.18;69.46;100065.16;5017406;28;20042;-77
2022/12/08 09:10:13;;;;;;;16.52;11.10;;;;;;;9.20;69.49;100070.41;5016800;28;20046;-76
2022/12/08 09:12:41;;;;;;;17.02;10.85;;;;;;;9.19;69.51;100068.69;5016372;28;20117;-77
2022/12/08 09:15:11;;;;;;;17.55;11.63;;;;;;;9.21;69.66;100080.09;5016564;28;20559;-76
2022/12/08 09:17:39;;;;;;;17.35;10.68;;;;;;;9.21;69.44;100079.25;5017133;28;20149;-78
2022/12/08 09:20:08;;;;;;;16.10;10.85;;;;;;;9.22;69.65;100080.94;5016657;28;20112;-78
2022/12/08 09:22:36;;;;;;;15.25;10.20;;;;;;;9.21;69.42;100063.28;5016388;28;20057;-78
2022/12/08 09:25:05;;;;;;;17.05;11.57;;;;;;;9.21;69.49;100047.31;4998316;28;20460;-78
2022/12/08 09:27:33;;;;;;;17.52;10.95;;;;;;;9.21;69.45;100048.16;5016707;28;20484;-77
2022/12/08 09:30:02;;;;;;;17.10;10.60;;;;;;;9.21;69.51;100057.94;4998881;28;20060;-77
2022/12/08 09:32:32;;;;;;;15.85;10.25;;;;;;;9.21;69.60;100060.59;5016436;28;20046;-78
2022/12/08 09:35:00;;;;;;;18.85;11.65;;;;;;;9.22;69.36;100062.31;4998552;28;20050;-78
2022/12/08 09:37:28;;;;;;;16.85;10.90;;;;;;;9.22;69.47;100068.50;5015187;28;20467;-77
2022/12/08 09:39:57;;;;;;;15.27;10.73;;;;;;;9.21;69.44;100069.44;5016006;28;20054;-77
2022/12/08 09:42:33;;;;;;;17.77;11.45;;;;;;;9.21;69.61;100057.94;4998530;28;20054;-78
2022/12/08 09:45:09;;;;;;;16.50;11.35;;;;;;;9.22;69.44;100055.19;4998554;28;20488;-77
2022/12/08 09:47:42;;;;;;;15.52;10.73;;;;;;;9.23;69.41;100050.72;4998618;28;20050;-77
2022/12/08 09:50:15;;;;;;;14.13;10.57;;;;;;;9.22;69.55;100038.38;5016000;28;20074;-77
2022/12/08 09:52:48;;;;;;;18.48;11.38;;;;;;;9.22;69.52;100036.56;5015940;28;20129;-77
2022/12/08 09:55:33;;;;;;;17.10;11.15;;;;;;;9.23;69.46;100027.63;4998137;28;20058;-78
2022/12/08 09:58:04;;;;;;;16.00;10.20;;;;;;;9.24;69.47;100015.19;5015678;28;20046;-77
2022/12/08 10:00:34;;;;;;;13.68;10.05;;;;;;;9.24;69.65;100021.34;5015921;28;20038;-77
2022/12/08 10:03:03;;;;;;;15.65;10.50;;;;;;;9.24;69.59;100016.03;5016087;28;20045;-77
2022/12/08 10:05:37;;;;;;;17.80;11.35;;;;;;;9.24;69.50;100013.38;5016060;28;20057;-78
2022/12/08 10:08:11;;;;;;;13.70;10.02;;;;;;;9.24;69.59;100015.19;5015808;28;20096;-76
2022/12/08 10:10:57;;;;;;;18.20;10.13;;;;;;;9.25;69.48;100023.06;5015621;28;20050;-78
2022/12/08 10:13:36;;;;;;;15.35;10.40;;;;;;;9.20;69.67;100016.31;5015413;28;20083;-77
2022/12/08 10:16:14;;;;;;;18.33;11.30;;;;;;;9.23;69.62;100024.13;5015150;28;20104;-76
2022/12/08 10:19:05;;;;;;;18.40;11.23;;;;;;;9.26;69.61;100039.91;5015374;28;20131;-77
2022/12/08 10:21:33;;;;;;;16.08;10.52;;;;;;;9.27;69.58;100033.66;5015290;28;20391;-76
2022/12/08 10:24:06;;;;;;;16.77;10.65;;;;;;;9.27;69.61;100033.66;4997782;28;20046;-77
2022/12/08 10:26:34;;;;;;;17.30;10.97;;;;;;;9.27;69.95;100034.50;5015195;28;20084;-77
2022/12/08 10:29:02;;;;;;;15.93;10.70;;;;;;;9.25;69.91;100015.09;4997498;28;20076;-78
2022/12/08 10:31:31;;;;;;;15.45;10.40;;;;;;;9.28;69.75;100014.06;5015014;28;20042;-76
2022/12/08 10:34:16;;;;;;;16.23;10.77;;;;;;;9.29;69.72;100013.97;5015073;28;20104;-77
2022/12/08 10:36:46;;;;;;;17.85;11.65;;;;;;;9.29;69.62;100007.81;5015034;28;20057;-77
2022/12/08 10:39:31;;;;;;;16.33;10.70;;;;;;;9.29;69.68;99999.81;5015281;28;20054;-76
2022/12/08 10:42:17;;;;;;;15.45;10.55;;;;;;;9.30;69.75;99988.22;5015082;28;20133;-77
2022/12/08 10:45:00;;;;;;;15.80;10.85;;;;;;;9.29;69.75;99982.03;5014650;28;20042;-77
2022/12/08 10:47:30;;;;;;;16.70;11.23;;;;;;;9.30;69.68;99973.09;5014997;28;20042;-77
2022/12/08 10:50:19;;;;;;;18.30;10.93;;;;;;;9.31;69.71;99982.81;5014698;28;20046;-77
2022/12/08 10:52:55;;;;;;;15.20;10.35;;;;;;;9.30;69.91;99972.25;4997218;28;20552;-77
2022/12/08 10:55:24;;;;;;;16.80;10.35;;;;;;;9.31;69.89;99968.63;5014359;28;20046;-79
2022/12/08 10:57:52;;;;;;;14.93;9.73;;;;;;;9.31;69.84;99963.31;5014834;28;20120;-77
2022/12/08 11:00:22;;;;;;;16.00;10.50;;;;;;;9.31;69.89;99956.19;5014729;28;20044;-77
2022/12/08 11:02:54;;;;;;;16.20;10.35;;;;;;;9.32;69.98;99951.72;5015633;28;20056;-78
2022/12/08 11:05:29;;;;;;;14.93;10.15;;;;;;;9.33;69.97;99950.75;5014782;28;20104;-78
2022/12/08 11:07:58;;;;;;;15.35;10.63;;;;;;;9.34;69.96;99947.16;5014630;28;20146;-79
2022/12/08 11:10:35;;;;;;;16.60;10.60;;;;;;;9.34;69.88;99947.16;4997552;28;20134;-78
2022/12/08 11:13:06;;;;;;;16.20;10.27;;;;;;;9.35;69.90;99946.19;5014323;28;20057;-77
2022/12/08 11:15:40;;;;;;;16.17;10.13;;;;;;;9.33;70.00;99938.31;5014081;28;20483;-78
2022/12/08 11:18:21;;;;;;;15.90;9.70;;;;;;;9.31;69.92;99920.72;4996302;28;20418;-77
2022/12/08 11:21:01;;;;;;;15.18;9.60;;;;;;;9.37;69.96;99933.69;4997028;28;20050;-76
2022/12/08 11:23:30;;;;;;;17.52;10.88;;;;;;;9.38;70.01;99927.41;5014602;28;20423;-77
2022/12/08 11:26:10;;;;;;;15.20;9.70;;;;;;;9.38;69.99;99922.94;5013721;28;20042;-77
2022/12/08 11:28:42;;;;;;;16.20;10.20;;;;;;;9.39;70.02;99914.00;4997021;28;20078;-78
2022/12/08 11:31:21;;;;;;;15.38;9.90;;;;;;;9.38;70.09;99906.09;5014107;28;20129;-79
2022/12/08 11:33:52;;;;;;;15.05;10.10;;;;;;;9.40;70.13;99899.72;5013809;28;20046;-77
2022/12/08 11:36:25;;;;;;;15.90;9.77;;;;;;;9.42;70.10;99904.97;5014029;28;20064;-77
2022/12/08 11:38:57;;;;;;;14.80;10.23;;;;;;;9.43;70.06;99893.34;4996348;28;20087;-78
2022/12/08 11:41:32;;;;;;;15.27;10.05;;;;;;;9.43;70.12;99888.03;5014321;28;20065;-76
2022/12/08 11:44:11;;;;;;;14.57;9.85;;;;;;;9.43;70.07;99878.25;5014885;28;20096;-78